AirNav   Everest Fuels
 
 1778 users online  

1MA4 Wang Heliport
Lowell, Massachusetts, USA

GOING TO LOWELL?


FAA INFORMATION EFFECTIVE 30 JANUARY 2020

Location

FAA Identifier: 1MA4
Lat/Long: 42-36-33.3300N 071-19-18.2170W
42-36.555500N 071-19.303617W
42.6092583,-71.3217269
(estimated)
Elevation: 104 ft. / 32 m (estimated)
Variation: 16W (1985)
From city: 2 miles N of LOWELL, MA
Time zone: UTC -5 (UTC -4 during Daylight Saving Time)
Zip code: 01851

Heliport Operations

Heliport use: Private use. Permission required prior to landing
Activation date: 07/1985
Control tower: no
ARTCC: BOSTON CENTER
FSS: BRIDGEPORT FLIGHT SERVICE STATION
Attendance: IREG
Wind indicator: yes
Segmented circle: no

Heliport Communications

WX ASOS at BED (8 nm S): 124.6 (781-274-9733)
WX ASOS at LWM (11 nm NE): PHONE 978-687-8017
WX AWOS-3PT at ASH (13 nm NW): 125.1 (603-578-0473)
WX ASOS at BVY (18 nm E): PHONE 978-921-5042
WX ASOS at FIT (20 nm W): 135.175 (978-343-9121)

Nearby radio navigation aids

VOR radial/distance  VOR name  Freq  Var
LWMr247/12.7LAWRENCE VOR/DME112.5015W
MHTr187/15.7MANCHESTER VOR/DME114.4015W
BOSr332/21.1BOSTON VOR/DME112.7016W
GDMr097/32.8GARDNER VOR/DME110.6014W
PSMr233/35.7PEASE VOR/DME116.5016W
CONr178/38.3CONCORD VOR/DME112.9015W

Heliport Services

Runway Information

Helipad H1

Dimensions: 132 x 132 ft. / 40 x 40 m
Surface: concrete
Traffic pattern: leftleft

Heliport Ownership and Management from official FAA records

Ownership: Privately-owned
Owner: WANG LABORATORIES
ONE INDUSTRIAL AVENUE
LOWELL, MA 01851
Phone 508-967-2162
Manager: J. ALBERT E. THERRIAULT
ONE INDUSTRIAL AVENUE
LOWELL, MA 01851
Phone 508-967-2162

Additional Remarks

FOR CD CTC BOSTON APCH AT 603-594-5554.

Instrument Procedures

There are no published instrument procedures at 1MA4.

Some nearby airports with instrument procedures:

KBED - Laurence G Hanscom Field Airport (8 nm S)
KLWM - Lawrence Municipal Airport (11 nm NE)
6B6 - Minute Man Air Field (12 nm SW)
KASH - Boire Field Airport (13 nm NW)
KBVY - Beverly Regional Airport (18 nm E)
KFIT - Fitchburg Municipal Airport (20 nm W)
 
Loc | Ops | Rwys | IFR | FBO | Links
Com | Nav | Svcs | Stats | Notes
Area around 1MA4 (Wang Heliport)
 
Road maps at: MapQuest Bing Google
 
Aerial photo
No photo
 
Sectional chart

 
Airport distance calculator
Flying to Wang Heliport? Find the distance to fly.

From to 1MA4

Sunrise and sunset
Times for 26-Feb-2020
 Local
(UTC-5)
 Zulu
(UTC)
Morning civil twilight05:5810:58
Sunrise06:2711:27
Sunset17:3022:30
Evening civil twilight17:5822:58

Current date and time
Zulu (UTC)  26-Feb-2020 17:00:26
Local (UTC-5)  26-Feb-2020 12:00:26
 
METAR
KBED 
9nm S 
261651Z 00000KT 10SM OVC055 09/02 A2999 RMK AO2 SLP168 T00940017
KLWM 
11nm NE 
261654Z 07008KT 10SM OVC055 08/02 A3001 RMK AO2 SLP164 T00830017
KASH 
13nm NW 
261556Z 10008KT 10SM OVC060 10/01 A3000 RMK AO2 SLP164 T01000006
KBVY 
18nm E 
261653Z 04009KT 10SM OVC055 08/02 A2999 RMK AO2 SLP153 T00830022
KFIT 
19nm W 
261652Z AUTO 00000KT 10SM OVC049 08/01 A3000 RMK AO2 SLP160 T00830006
KBOS 
20nm SE 
261654Z 07009KT 10SM BKN055 OVC090 08/03 A3000 RMK AO2 SLP160 T00830033
TAF
KBED 
9nm S 
261536Z 2616/2712 04005KT P6SM OVC050 FM262100 07006KT P6SM BKN015 FM270000 07006KT 4SM BR VCSH OVC003 FM270500 08010G17KT 3SM BR VCSH OVC008 FM270800 09013G24KT 3SM RA BR OVC003
KBOS 
20nm SE 
261402Z 2614/2718 04006KT P6SM BKN050 FM261900 05008KT P6SM BKN012 OVC040 FM262300 07009KT 5SM BR OVC008 FM270600 08014G22KT 3SM -RA BR OVC003 FM271200 11023G33KT 2SM RA BR OVC008 WS020/13050KT FM271500 20018KT 3SM BR BKN010
NOTAMs
Click for the latest NOTAMs
NOTAMs are issued by the DoD/FAA and will open in a separate window not controlled by AirNav.

 

 
 

Would you like to see your business listed on this page?

 If your business provides an interesting product or service to pilots, flight crews, aircraft, or users of the Wang Heliport, you should consider listing it here.  To start the listing process, click on the button below
 
Add a business
 

Other Pages about Wang Heliport

Update a link
 
Copyright © AirNav, LLC. All rights reserved. Privacy Policy  Contact